createdAt,value
2023-03-06T09:08:22.779Z,2468.00
2023-03-06T09:09:23.790Z,2485.00
2023-03-06T09:10:23.865Z,2456.00
2023-03-06T09:11:23.998Z,2444.00
2023-03-06T09:12:25.470Z,2442.00
2023-03-06T09:13:23.957Z,2439.00
2023-03-06T09:14:23.951Z,2434.00
2023-03-06T09:15:23.937Z,2428.00
2023-03-06T09:16:24.030Z,2600.00
2023-03-06T09:17:24.014Z,2508.00
2023-03-06T09:18:23.913Z,2497.00
2023-03-06T09:19:25.489Z,2447.00
2023-03-06T09:20:24.068Z,2452.00
2023-03-06T09:21:23.972Z,2446.00
2023-03-06T09:22:23.977Z,2451.00
2023-03-06T09:23:24.485Z,2453.00
2023-03-06T09:24:24.140Z,2454.00
2023-03-06T09:25:23.947Z,2554.00
2023-03-06T09:26:32.775Z,2525.00
2023-03-06T09:27:23.992Z,2514.00
2023-03-06T09:28:23.974Z,2511.00
2023-03-06T09:29:23.993Z,2632.00
2023-03-06T09:30:24.520Z,2559.00
2023-03-06T09:31:24.489Z,2541.00
2023-03-06T09:32:23.944Z,2532.00
2023-03-06T09:33:23.992Z,2535.00
2023-03-06T09:34:24.486Z,2597.00
2023-03-06T09:35:23.960Z,2583.00
2023-03-06T09:36:25.513Z,2591.00
2023-03-06T09:37:24.117Z,2614.00
2023-03-06T09:38:24.044Z,2607.00
2023-03-06T09:39:24.079Z,2609.00
2023-03-06T09:40:23.997Z,2655.00
2023-03-06T09:41:24.060Z,2689.00
2023-03-06T09:42:23.946Z,2708.00
2023-03-06T09:43:23.936Z,2690.00
2023-03-06T09:44:24.531Z,2664.00
2023-03-06T09:45:24.025Z,2283.00
2023-03-06T09:46:24.166Z,2261.00
2023-03-06T09:47:24.021Z,2072.00
2023-03-06T09:48:23.900Z,2038.00
2023-03-06T09:49:24.064Z,1956.00
2023-03-06T09:50:23.871Z,1646.00
2023-03-06T09:51:24.496Z,1743.00
2023-03-06T09:52:23.848Z,1535.00
2023-03-06T09:53:23.890Z,1468.00
2023-03-06T09:54:24.004Z,1318.00
2023-03-06T09:55:23.827Z,1313.00
2023-03-06T09:56:23.865Z,1302.00
2023-03-06T09:57:23.830Z,1295.00
2023-03-06T09:58:23.816Z,1298.00
2023-03-06T09:59:23.820Z,1301.00
2023-03-06T10:00:23.777Z,1284.00
2023-03-06T10:01:23.770Z,1228.00
2023-03-06T10:02:24.094Z,1215.00
2023-03-06T10:03:23.807Z,1205.00
2023-03-06T10:04:23.761Z,1188.00
2023-03-06T10:05:24.280Z,1171.00
2023-03-06T10:06:23.766Z,1164.00
2023-03-06T10:07:24.508Z,1150.00
2023-03-06T10:08:23.709Z,1083.00
2023-03-06T10:09:23.693Z,1091.00
2023-03-06T10:10:24.040Z,1085.00
2023-03-06T10:11:23.685Z,1114.00
2023-03-06T10:12:24.926Z,1075.00
2023-03-06T10:13:23.665Z,1036.00
2023-03-06T10:14:23.644Z,1032.00
2023-03-06T10:15:23.639Z,1024.00
2023-03-06T10:16:23.634Z,1019.00
2023-03-06T10:17:23.701Z,1014.00
2023-03-06T10:18:24.011Z,1009.00
2023-03-06T10:19:24.040Z,1003.00
2023-03-06T10:20:24.018Z,986.00
2023-03-06T10:21:23.590Z,941.00
2023-03-06T10:22:23.633Z,942.00
2023-03-06T10:23:23.599Z,966.00
2023-03-06T10:24:23.568Z,963.00
2023-03-06T10:25:24.056Z,959.00
2023-03-06T10:26:23.680Z,952.00
2023-03-06T10:27:23.571Z,952.00
2023-03-06T10:28:23.579Z,948.00
2023-03-06T10:29:23.554Z,949.00
2023-03-06T10:30:23.541Z,953.00
2023-03-06T10:31:24.143Z,958.00
2023-03-06T10:32:23.622Z,959.00
2023-03-06T10:33:23.558Z,961.00
2023-03-06T10:34:23.546Z,963.00
2023-03-06T10:35:23.582Z,965.00
2023-03-06T10:36:23.498Z,968.00
2023-03-06T10:37:23.556Z,1034.00
2023-03-06T10:38:24.107Z,1005.00
2023-03-06T10:39:24.011Z,981.00
2023-03-06T10:40:23.487Z,972.00
2023-03-06T10:41:23.724Z,967.00
2023-03-06T10:42:24.522Z,968.00
2023-03-06T10:43:23.521Z,964.00
2023-03-06T10:44:23.624Z,967.00
2023-03-06T10:45:24.390Z,958.00
2023-03-06T10:46:23.677Z,949.00
2023-03-06T10:47:26.593Z,947.00
2023-03-06T10:48:23.583Z,944.00
2023-03-06T10:49:23.531Z,940.00
2023-03-06T10:50:23.390Z,938.00
2023-03-06T10:51:24.054Z,939.00
2023-03-06T10:52:23.310Z,959.00
2023-03-06T10:53:23.530Z,953.00
2023-03-06T10:54:23.482Z,960.00
2023-03-06T10:55:23.277Z,964.00
2023-03-06T10:56:23.271Z,968.00
2023-03-06T10:57:23.263Z,968.00
2023-03-06T10:58:23.535Z,969.00
2023-03-06T10:59:24.030Z,968.00
2023-03-06T11:00:23.588Z,970.00
2023-03-06T11:01:23.294Z,971.00
2023-03-06T11:02:23.214Z,970.00
2023-03-06T11:03:23.556Z,967.00
2023-03-06T11:04:23.376Z,965.00
2023-03-06T11:05:23.199Z,969.00
2023-03-06T11:06:24.030Z,966.00
2023-03-06T11:07:23.534Z,967.00
2023-03-06T11:08:23.444Z,971.00
2023-03-06T11:09:23.158Z,971.00
2023-03-06T11:10:23.143Z,969.00
2023-03-06T11:11:36.756Z,969.00
2023-03-06T11:12:23.186Z,968.00
2023-03-06T11:13:23.111Z,965.00
2023-03-06T11:14:23.231Z,962.00
2023-03-06T11:15:23.108Z,962.00
2023-03-06T11:16:25.787Z,962.00
2023-03-06T11:17:23.082Z,964.00
2023-03-06T11:18:23.065Z,963.00
2023-03-06T11:19:23.533Z,964.00
2023-03-06T11:20:23.071Z,961.00
2023-03-06T11:21:23.033Z,962.00
2023-03-06T11:22:23.038Z,965.00
2023-03-06T11:23:23.059Z,960.00
2023-03-06T11:24:23.271Z,861.00
2023-03-06T11:25:23.009Z,871.00
2023-03-06T11:26:23.045Z,879.00
2023-03-06T11:27:22.988Z,875.00
2023-03-06T11:28:23.055Z,872.00
2023-03-06T11:29:23.138Z,868.00
2023-03-06T11:30:22.970Z,864.00
2023-03-06T11:31:23.176Z,855.00
2023-03-06T11:32:23.164Z,846.00
2023-03-06T11:33:23.509Z,839.00
2023-03-06T11:34:23.339Z,831.00
2023-03-06T11:35:22.965Z,821.00
2023-03-06T11:36:22.922Z,812.00
2023-03-06T11:37:23.110Z,807.00
2023-03-06T11:38:22.892Z,801.00
2023-03-06T11:39:22.880Z,796.00
2023-03-06T11:40:22.898Z,792.00
2023-03-06T11:41:22.855Z,790.00
2023-03-06T11:42:22.849Z,791.00
2023-03-06T11:43:23.044Z,796.00
2023-03-06T11:44:22.821Z,805.00
2023-03-06T11:45:22.813Z,812.00
2023-03-06T11:46:26.342Z,816.00
2023-03-06T11:47:22.804Z,819.00
2023-03-06T11:48:22.819Z,817.00
2023-03-06T11:49:22.821Z,819.00
2023-03-06T11:50:22.929Z,828.00
2023-03-06T11:51:23.042Z,840.00
2023-03-06T11:52:23.052Z,845.00
2023-03-06T11:53:22.778Z,851.00
2023-03-06T11:54:22.785Z,854.00
2023-03-06T11:55:22.750Z,859.00
2023-03-06T11:56:22.800Z,865.00
2023-03-06T11:57:23.094Z,869.00
2023-03-06T11:58:22.736Z,873.00
2023-03-06T11:59:23.045Z,878.00
2023-03-06T12:00:22.688Z,884.00
2023-03-06T12:01:22.672Z,890.00
2023-03-06T12:02:22.683Z,894.00
2023-03-06T12:03:23.052Z,902.00
2023-03-06T12:04:22.673Z,955.00
2023-03-06T12:05:22.749Z,1041.00
2023-03-06T12:06:22.627Z,1149.00
2023-03-06T12:07:22.632Z,1004.00
2023-03-06T12:08:23.052Z,1008.00
2023-03-06T12:09:23.495Z,1005.00
2023-03-06T12:10:22.594Z,1055.00
2023-03-06T12:11:22.591Z,1176.00
2023-03-06T12:12:22.608Z,1185.00
2023-03-06T12:13:22.566Z,1109.00
2023-03-06T12:14:23.255Z,1091.00
2023-03-06T12:15:22.545Z,1107.00
2023-03-06T12:16:22.562Z,1147.00
2023-03-06T12:17:22.526Z,1170.00
2023-03-06T12:18:22.527Z,1197.00
2023-03-06T12:19:22.569Z,1178.00
2023-03-06T12:20:22.581Z,1049.00
2023-03-06T12:22:22.575Z,1296.00
2023-03-06T12:31:22.451Z,1321.00
2023-03-06T13:09:43.076Z,1785.00
2023-03-06T13:23:24.611Z,1989.00
2023-03-06T13:24:21.928Z,1989.00
2023-03-06T13:25:22.034Z,2347.00
2023-03-06T13:26:21.926Z,2087.00
2023-03-06T13:27:21.902Z,2074.00
2023-03-06T13:28:21.891Z,2006.00
2023-03-06T13:29:21.879Z,1995.00
2023-03-06T13:30:21.873Z,2002.00
2023-03-06T13:31:27.453Z,2141.00
2023-03-06T13:32:22.625Z,2089.00
2023-03-06T13:33:21.838Z,2111.00
2023-03-06T13:34:21.836Z,2091.00
2023-03-06T13:35:21.849Z,2213.00
2023-03-06T13:36:21.818Z,2070.00
2023-03-06T13:37:22.086Z,2329.00
2023-03-06T13:38:22.662Z,2323.00
2023-03-06T13:39:21.817Z,2262.00
2023-03-06T13:40:22.581Z,2176.00
2023-03-06T13:41:21.767Z,2166.00
2023-03-06T13:42:21.759Z,2247.00
2023-03-06T13:43:21.748Z,2196.00
2023-03-06T13:44:21.746Z,2221.00
2023-03-06T13:45:22.089Z,2193.00
2023-03-06T13:46:21.784Z,2199.00
2023-03-06T13:47:21.729Z,2203.00
2023-03-06T13:48:41.540Z,2354.00
2023-03-06T13:49:21.691Z,2548.00
2023-03-06T13:50:21.693Z,2429.00
2023-03-06T13:51:21.996Z,2594.00
2023-03-06T13:52:21.666Z,2281.00
2023-03-06T14:05:24.089Z,1860.00
2023-03-06T14:13:35.090Z,1887.00
2023-03-06T14:22:28.087Z,1861.00
2023-03-06T14:25:24.091Z,1851.00
2023-03-06T14:28:28.096Z,1840.00
2023-03-06T14:36:24.151Z,1808.00
2023-03-06T14:45:36.106Z,1777.00
2023-03-06T14:57:21.085Z,1737.00
2023-03-06T14:58:27.655Z,1733.00
2023-03-06T14:59:21.181Z,1731.00
2023-03-06T15:00:21.676Z,1729.00
2023-03-06T15:01:21.064Z,1726.00
2023-03-06T15:02:21.034Z,1722.00
2023-03-06T15:03:21.023Z,1716.00
2023-03-06T15:04:27.663Z,1711.00
2023-03-06T15:05:21.011Z,1706.00
2023-03-06T15:06:21.007Z,1700.00
2023-03-06T15:07:21.190Z,1694.00
2023-03-06T15:08:20.985Z,1691.00
2023-03-06T15:09:21.628Z,1686.00
2023-03-06T15:10:20.966Z,1683.00
2023-03-06T15:12:20.981Z,1680.00
2023-03-06T15:13:27.633Z,1685.00
2023-03-06T15:14:23.686Z,1684.00
2023-03-06T15:15:20.938Z,1682.00
2023-03-06T15:16:20.950Z,1677.00
2023-03-06T15:17:21.118Z,1671.00
2023-03-06T15:18:20.891Z,1663.00
2023-03-06T15:19:21.129Z,1659.00
2023-03-06T15:20:20.871Z,1658.00
2023-03-06T15:21:20.867Z,1652.00
2023-03-06T15:22:21.624Z,1651.00
2023-03-06T15:23:20.854Z,1646.00
2023-03-06T15:24:20.842Z,1639.00
2023-03-06T15:25:21.134Z,1638.00
2023-03-06T15:26:20.817Z,1632.00
2023-03-06T15:27:20.808Z,1630.00
2023-03-06T15:28:20.798Z,1628.00
2023-03-06T15:29:23.639Z,1625.00
2023-03-06T15:30:21.145Z,1619.00
2023-03-06T15:31:20.859Z,1615.00
2023-03-06T15:32:20.783Z,1494.00
2023-03-06T15:33:20.755Z,1471.00
2023-03-06T15:34:20.742Z,1438.00
2023-03-06T15:35:20.788Z,1387.00
2023-03-06T15:36:20.731Z,1414.00
2023-03-06T15:37:23.622Z,1411.00
2023-03-06T15:38:20.705Z,1364.00
2023-03-06T15:39:21.128Z,1375.00
2023-03-06T15:40:21.137Z,1370.00
2023-03-06T15:41:20.697Z,1376.00
2023-03-06T15:42:20.691Z,1378.00
2023-03-06T15:43:20.667Z,1378.00
2023-03-06T15:44:21.140Z,1383.00
2023-03-06T15:45:20.654Z,1384.00
2023-03-06T15:46:20.665Z,1386.00
2023-03-06T15:47:20.632Z,1388.00
2023-03-06T15:48:27.129Z,1389.00
2023-03-06T15:49:21.133Z,1391.00
2023-03-06T15:50:20.606Z,1389.00
2023-03-06T15:51:21.169Z,1391.00
2023-03-06T15:52:20.627Z,1386.00
2023-03-06T15:53:21.135Z,1386.00
2023-03-06T15:54:20.577Z,1382.00
2023-03-06T15:55:20.564Z,1379.00
2023-03-06T15:56:20.553Z,1376.00
2023-03-06T15:57:20.549Z,1373.00
2023-03-06T15:58:20.591Z,1372.00
2023-03-06T15:59:21.133Z,1370.00
2023-03-06T16:00:27.291Z,1369.00
2023-03-06T16:01:20.525Z,1367.00
2023-03-06T16:02:20.578Z,1366.00
2023-03-06T16:03:23.140Z,1359.00
2023-03-06T16:04:20.625Z,1355.00
2023-03-06T16:05:20.704Z,1351.00
2023-03-06T16:06:20.465Z,1352.00
2023-03-06T16:07:20.455Z,1348.00
2023-03-06T16:08:23.138Z,1345.00
2023-03-06T16:09:23.139Z,1340.00
2023-03-06T16:10:20.651Z,1339.00
2023-03-06T16:11:24.579Z,1338.00
2023-03-06T16:12:41.421Z,1335.00
2023-03-06T16:13:21.139Z,1332.00
2023-03-06T16:14:20.388Z,1332.00
2023-03-06T16:15:22.145Z,1330.00
2023-03-06T16:16:20.653Z,1329.00
2023-03-06T16:17:20.611Z,1328.00
2023-03-06T16:18:23.179Z,1327.00
2023-03-06T16:19:26.340Z,1322.00
2023-03-06T16:20:23.686Z,1322.00
2023-03-06T16:21:20.605Z,1318.00
2023-03-06T16:22:20.564Z,1311.00
2023-03-06T16:23:20.562Z,1307.00
2023-03-06T16:24:21.148Z,1302.00
2023-03-06T16:25:20.538Z,1299.00
2023-03-06T16:26:20.645Z,1299.00
2023-03-06T16:27:20.518Z,1295.00
2023-03-06T16:28:20.514Z,1292.00
2023-03-06T16:29:20.501Z,1288.00
2023-03-06T16:30:20.488Z,1287.00
2023-03-06T16:31:20.487Z,1285.00
2023-03-06T16:32:20.516Z,1281.00
2023-03-06T16:33:20.468Z,1279.00
2023-03-06T16:34:20.493Z,1277.00
2023-03-06T16:35:20.485Z,1277.00
2023-03-06T16:36:20.436Z,1277.00
2023-03-06T16:37:20.434Z,1275.00
2023-03-06T16:38:20.421Z,1276.00
2023-03-06T16:39:20.407Z,1273.00
2023-03-06T16:40:20.397Z,1268.00
2023-03-06T16:41:20.394Z,1264.00
2023-03-06T16:42:20.380Z,1260.00
2023-03-06T16:43:20.370Z,1260.00
2023-03-06T16:44:20.414Z,1260.00
2023-03-06T16:45:20.374Z,1258.00
2023-03-06T16:46:20.416Z,1257.00
2023-03-06T16:47:23.144Z,1254.00
2023-03-06T16:48:20.333Z,1249.00
2023-03-06T16:49:20.374Z,1247.00
2023-03-06T16:50:20.344Z,1244.00
2023-03-06T16:51:20.311Z,1241.00
2023-03-06T16:52:20.293Z,1240.00
2023-03-06T16:53:20.341Z,1237.00
2023-03-06T16:54:20.270Z,1238.00
2023-03-06T16:55:20.265Z,1235.00
2023-03-06T16:56:20.259Z,1232.00
2023-03-06T16:57:20.260Z,1228.00
2023-03-06T16:58:20.264Z,1226.00
2023-03-06T16:59:20.309Z,1225.00
2023-03-06T17:00:20.219Z,1223.00
2023-03-06T17:01:20.279Z,1222.00
2023-03-06T17:02:20.245Z,1221.00
2023-03-06T17:03:20.226Z,1219.00
2023-03-06T17:04:20.184Z,1217.00
2023-03-06T17:05:20.198Z,1218.00
2023-03-06T17:06:20.190Z,1217.00
2023-03-06T17:07:21.160Z,1217.00
2023-03-06T17:08:20.149Z,1214.00
2023-03-06T17:09:20.207Z,1214.00
2023-03-06T17:10:34.684Z,1209.00
2023-03-06T17:11:20.652Z,1209.00
2023-03-06T17:12:20.655Z,1207.00
2023-03-06T17:13:20.103Z,1204.00
2023-03-06T17:14:20.125Z,1201.00
2023-03-06T17:15:20.091Z,1197.00
2023-03-06T17:16:20.128Z,1195.00
2023-03-06T17:17:20.073Z,1191.00
2023-03-06T17:18:20.066Z,1190.00
2023-03-06T17:19:20.171Z,1189.00
2023-03-06T17:20:20.037Z,1192.00
2023-03-06T17:21:20.032Z,1189.00
2023-03-06T17:22:20.049Z,1186.00
2023-03-06T17:23:20.017Z,1181.00
2023-03-06T17:24:20.026Z,1177.00
2023-03-06T17:25:20.003Z,1174.00
2023-03-06T17:26:20.670Z,1173.00
2023-03-06T17:27:19.980Z,1171.00
2023-03-06T17:28:19.970Z,1166.00
2023-03-06T17:29:19.964Z,1165.00
2023-03-06T17:30:19.949Z,1163.00
2023-03-06T17:31:20.029Z,1160.00
2023-03-06T17:32:20.215Z,1159.00
2023-03-06T17:33:19.920Z,1158.00
2023-03-06T17:34:19.932Z,1157.00
2023-03-06T17:35:19.956Z,1156.00
2023-03-06T17:36:20.007Z,1157.00
2023-03-06T17:37:19.923Z,1159.00
2023-03-06T17:38:20.020Z,1157.00
2023-03-06T17:39:19.870Z,1153.00
2023-03-06T17:40:19.855Z,1154.00
2023-03-06T17:41:19.894Z,1152.00
2023-03-06T17:42:19.861Z,1150.00
2023-03-06T17:43:19.829Z,1148.00
2023-03-06T17:44:19.863Z,1145.00
2023-03-06T17:45:19.813Z,1141.00
2023-03-06T17:46:19.844Z,1138.00
2023-03-06T17:47:19.821Z,1134.00
2023-03-06T17:48:20.670Z,1130.00
2023-03-06T17:49:20.673Z,1130.00
2023-03-06T17:50:19.765Z,1133.00
2023-03-06T17:51:19.763Z,1132.00
2023-03-06T17:52:19.752Z,1131.00
2023-03-06T17:53:19.741Z,1129.00
2023-03-06T17:54:19.774Z,1129.00
2023-03-06T17:55:19.728Z,1128.00
2023-03-06T17:56:19.719Z,1129.00
2023-03-06T17:57:19.708Z,1126.00
2023-03-06T17:58:34.731Z,1121.00
2023-03-06T17:59:20.683Z,1119.00
2023-03-06T18:00:19.677Z,1119.00
2023-03-06T18:01:19.706Z,1117.00
2023-03-06T18:02:19.653Z,1114.00
2023-03-06T18:03:19.647Z,1115.00
2023-03-06T18:04:19.646Z,1111.00
2023-03-06T18:05:19.634Z,1110.00
2023-03-06T18:06:19.624Z,1106.00
2023-03-06T18:07:19.617Z,1103.00
2023-03-06T18:08:19.601Z,1101.00
2023-03-06T18:09:19.608Z,1098.00
2023-03-06T18:10:19.606Z,1094.00
2023-03-06T18:11:19.572Z,1092.00
2023-03-06T18:12:19.563Z,1086.00
2023-03-06T18:13:19.560Z,1085.00
2023-03-06T18:14:19.696Z,1085.00
2023-03-06T18:15:19.537Z,1084.00
2023-03-06T18:16:19.596Z,1084.00
2023-03-06T18:17:19.610Z,1080.00
2023-03-06T18:18:19.515Z,1079.00
2023-03-06T18:19:19.501Z,1079.00
2023-03-06T18:20:19.493Z,1077.00
2023-03-06T18:21:19.482Z,1077.00
2023-03-06T18:22:19.512Z,1077.00
2023-03-06T18:23:20.180Z,1076.00
2023-03-06T18:24:19.455Z,1073.00
2023-03-06T18:25:19.445Z,1073.00
2023-03-06T18:26:19.472Z,1072.00
2023-03-06T18:27:19.436Z,1065.00
2023-03-06T18:28:19.442Z,1063.00
2023-03-06T18:29:19.413Z,1060.00
2023-03-06T18:30:19.409Z,1061.00
2023-03-06T18:31:19.434Z,1059.00
2023-03-06T18:32:20.230Z,1057.00
2023-03-06T18:33:19.424Z,1056.00
2023-03-06T18:34:19.376Z,1055.00
2023-03-06T18:35:19.395Z,1051.00
2023-03-06T18:36:20.190Z,1052.00
2023-03-06T18:37:19.347Z,1053.00
2023-03-06T18:38:19.364Z,1053.00
2023-03-06T18:39:19.333Z,1054.00
2023-03-06T18:40:19.327Z,1055.00
2023-03-06T18:41:19.301Z,1054.00
2023-03-06T18:42:19.325Z,1050.00
2023-03-06T18:43:19.283Z,1047.00
2023-03-06T18:44:19.712Z,1047.00
2023-03-06T18:45:22.197Z,1046.00
2023-03-06T18:46:19.261Z,1042.00
2023-03-06T18:47:22.199Z,1040.00
2023-03-06T18:48:19.272Z,1038.00
2023-03-06T18:49:19.236Z,1036.00
2023-03-06T18:50:19.220Z,1036.00
2023-03-06T18:51:19.214Z,1035.00
2023-03-06T18:52:19.205Z,1031.00
2023-03-06T18:53:19.221Z,1028.00
2023-03-06T18:54:19.208Z,1028.00
2023-03-06T18:55:19.695Z,1029.00
2023-03-06T18:56:19.169Z,1027.00
2023-03-06T18:57:19.168Z,1026.00
2023-03-06T18:58:19.175Z,1024.00
2023-03-06T18:59:19.147Z,1020.00
2023-03-06T19:00:19.697Z,1018.00
2023-03-06T19:01:19.221Z,1019.00
2023-03-06T19:02:19.113Z,1018.00
2023-03-06T19:03:19.102Z,1017.00
2023-03-06T19:04:19.246Z,1014.00
2023-03-06T19:05:21.702Z,1013.00
2023-03-06T19:06:19.090Z,1009.00
2023-03-06T19:07:19.717Z,1007.00
2023-03-06T19:08:19.061Z,1005.00
2023-03-06T19:09:19.212Z,1004.00
2023-03-06T19:10:19.045Z,1006.00
2023-03-06T19:11:19.038Z,1007.00
2023-03-06T19:12:19.029Z,1004.00
2023-03-06T19:13:19.021Z,1001.00
2023-03-06T19:14:19.035Z,999.00
2023-03-06T19:15:19.001Z,995.00
2023-03-06T19:16:19.026Z,994.00
2023-03-06T19:17:19.214Z,992.00
2023-03-06T19:18:18.988Z,992.00
2023-03-06T19:19:18.967Z,991.00
2023-03-06T19:20:18.959Z,990.00
2023-03-06T19:21:18.977Z,988.00
2023-03-06T19:22:19.713Z,988.00
2023-03-06T19:23:18.931Z,986.00
2023-03-06T19:24:18.930Z,984.00
2023-03-06T19:25:18.910Z,978.00
2023-03-06T19:26:18.954Z,976.00
2023-03-06T19:27:18.890Z,975.00
2023-03-06T19:28:18.902Z,976.00
2023-03-06T19:29:18.880Z,974.00
2023-03-06T19:30:18.891Z,971.00
2023-03-06T19:31:19.667Z,972.00
2023-03-06T19:32:18.996Z,972.00
2023-03-06T19:33:18.845Z,974.00
2023-03-06T19:34:19.727Z,971.00
2023-03-06T19:35:33.810Z,970.00
2023-03-06T19:36:18.825Z,969.00
2023-03-06T19:37:18.805Z,968.00
2023-03-06T19:38:18.794Z,967.00
2023-03-06T19:39:19.724Z,965.00
2023-03-06T19:40:18.779Z,965.00
2023-03-06T19:41:18.774Z,966.00
2023-03-06T19:42:18.757Z,962.00
2023-03-06T19:43:18.753Z,961.00
2023-03-06T19:44:18.747Z,957.00
2023-03-06T19:45:18.733Z,956.00
2023-03-06T19:46:18.782Z,956.00
2023-03-06T19:47:18.716Z,956.00
2023-03-06T19:48:18.997Z,955.00
2023-03-06T19:49:18.697Z,952.00
2023-03-06T19:50:18.690Z,948.00
2023-03-06T19:51:18.679Z,947.00
2023-03-06T19:52:18.667Z,944.00
2023-03-06T19:53:18.660Z,943.00
2023-03-06T19:54:18.658Z,941.00
2023-03-06T19:55:18.646Z,941.00
2023-03-06T19:56:21.265Z,938.00
2023-03-06T19:57:18.627Z,937.00
2023-03-06T19:58:18.615Z,937.00
2023-03-06T19:59:18.619Z,936.00
2023-03-06T20:00:18.605Z,932.00
2023-03-06T20:01:18.642Z,929.00
2023-03-06T20:02:25.258Z,930.00
2023-03-06T20:03:18.576Z,929.00
2023-03-06T20:04:18.615Z,930.00
2023-03-06T20:05:21.239Z,929.00
2023-03-06T20:06:18.565Z,929.00
2023-03-06T20:07:18.542Z,929.00
2023-03-06T20:08:18.533Z,926.00
2023-03-06T20:09:18.518Z,925.00
2023-03-06T20:10:19.234Z,925.00
2023-03-06T20:11:21.236Z,926.00
2023-03-06T20:12:18.506Z,923.00
2023-03-06T20:13:18.478Z,921.00
2023-03-06T20:14:18.742Z,921.00
2023-03-06T20:15:19.229Z,922.00
2023-03-06T20:16:18.457Z,920.00
2023-03-06T20:17:18.445Z,918.00
2023-03-06T20:18:18.502Z,918.00
2023-03-06T20:19:18.423Z,916.00
2023-03-06T20:20:18.408Z,917.00
2023-03-06T20:21:18.408Z,921.00
2023-03-06T20:22:18.389Z,918.00
2023-03-06T20:23:19.230Z,916.00
2023-03-06T20:24:18.372Z,918.00
2023-03-06T20:25:18.383Z,915.00
2023-03-06T20:26:19.234Z,913.00
2023-03-06T20:27:18.345Z,912.00
2023-03-06T20:28:18.333Z,914.00
2023-03-06T20:29:18.331Z,911.00
2023-03-06T20:30:18.318Z,909.00
2023-03-06T20:31:18.370Z,905.00
2023-03-06T20:32:18.359Z,907.00
2023-03-06T20:33:18.302Z,907.00
2023-03-06T20:34:18.316Z,905.00
2023-03-06T20:35:18.768Z,904.00
2023-03-06T20:36:18.266Z,902.00
2023-03-06T20:37:18.248Z,902.00
2023-03-06T20:38:18.254Z,900.00
2023-03-06T20:39:18.235Z,899.00
2023-03-06T20:40:18.316Z,900.00
2023-03-06T20:41:18.213Z,899.00
2023-03-06T20:42:18.735Z,898.00
2023-03-06T20:43:18.203Z,895.00
2023-03-06T20:44:18.192Z,896.00
2023-03-06T20:45:18.181Z,897.00
2023-03-06T20:46:18.204Z,898.00
2023-03-06T20:47:18.164Z,900.00
2023-03-06T20:48:18.159Z,899.00
2023-03-06T20:49:27.167Z,896.00
2023-03-06T20:50:18.151Z,894.00
2023-03-06T20:51:18.133Z,891.00
2023-03-06T20:52:18.117Z,889.00
2023-03-06T20:53:18.107Z,888.00
2023-03-06T20:54:18.170Z,887.00
2023-03-06T20:55:18.092Z,887.00
2023-03-06T20:56:18.096Z,886.00
2023-03-06T20:57:18.081Z,884.00
2023-03-06T20:58:18.065Z,881.00
2023-03-06T20:59:18.054Z,881.00
2023-03-06T21:00:18.050Z,883.00
2023-03-06T21:01:18.106Z,880.00
2023-03-06T21:02:18.027Z,878.00
2023-03-06T21:03:18.022Z,879.00
2023-03-06T21:04:18.013Z,877.00
2023-03-06T21:05:18.058Z,877.00
2023-03-06T21:06:18.745Z,877.00
2023-03-06T21:07:17.982Z,878.00
2023-03-06T21:08:17.979Z,876.00
2023-03-06T21:09:17.982Z,877.00
2023-03-06T21:10:17.955Z,874.00
2023-03-06T21:11:17.946Z,873.00
2023-03-06T21:12:17.944Z,872.00
2023-03-06T21:13:17.929Z,873.00
2023-03-06T21:14:17.943Z,871.00
2023-03-06T21:15:17.910Z,871.00
2023-03-06T21:16:18.025Z,870.00
2023-03-06T21:17:17.902Z,873.00
2023-03-06T21:18:17.895Z,874.00
2023-03-06T21:19:17.878Z,872.00
2023-03-06T21:20:17.876Z,871.00
2023-03-06T21:21:17.903Z,874.00
2023-03-06T21:22:17.855Z,873.00
2023-03-06T21:23:17.841Z,875.00
2023-03-06T21:24:19.710Z,873.00
2023-03-06T21:25:17.833Z,869.00
2023-03-06T21:26:17.814Z,868.00
2023-03-06T21:27:17.810Z,868.00
2023-03-06T21:28:17.800Z,865.00
2023-03-06T21:29:18.828Z,862.00
2023-03-06T21:30:17.793Z,860.00
2023-03-06T21:31:17.878Z,855.00
2023-03-06T21:32:17.816Z,855.00
2023-03-06T21:33:17.752Z,852.00
2023-03-06T21:34:17.773Z,851.00
2023-03-06T21:35:17.732Z,852.00
2023-03-06T21:36:17.739Z,850.00
2023-03-06T21:37:17.745Z,850.00
2023-03-06T21:38:17.709Z,850.00
2023-03-06T21:39:18.297Z,845.00
2023-03-06T21:40:17.694Z,841.00
2023-03-06T21:41:17.682Z,842.00
2023-03-06T21:42:17.675Z,843.00
2023-03-06T21:43:18.269Z,846.00
2023-03-06T21:44:17.668Z,844.00
2023-03-06T21:45:17.646Z,840.00
2023-03-06T21:46:17.678Z,838.00
2023-03-06T21:47:17.634Z,834.00
2023-03-06T21:48:17.631Z,834.00
2023-03-06T21:49:17.613Z,833.00
2023-03-06T21:50:17.602Z,833.00
2023-03-06T21:51:17.608Z,832.00
2023-03-06T21:52:17.584Z,832.00
2023-03-06T21:53:17.605Z,832.00
2023-03-06T21:54:17.566Z,832.00
2023-03-06T21:55:17.557Z,834.00
2023-03-06T21:56:17.794Z,835.00
2023-03-06T21:57:17.541Z,835.00
2023-03-06T21:58:17.531Z,834.00
2023-03-06T21:59:17.519Z,834.00
2023-03-06T22:00:17.509Z,833.00
2023-03-06T22:01:17.555Z,833.00
2023-03-06T22:02:17.499Z,832.00
2023-03-06T22:03:17.482Z,832.00
2023-03-06T22:04:17.506Z,832.00
2023-03-06T22:05:17.481Z,829.00
2023-03-06T22:06:17.506Z,828.00
2023-03-06T22:07:17.449Z,826.00
2023-03-06T22:08:17.437Z,826.00
2023-03-06T22:09:17.454Z,827.00
2023-03-06T22:10:17.427Z,826.00
2023-03-06T22:11:24.309Z,826.00
2023-03-06T22:12:17.407Z,826.00
2023-03-06T22:13:17.394Z,826.00
2023-03-06T22:14:17.387Z,826.00
2023-03-06T22:15:17.379Z,823.00
2023-03-06T22:16:17.498Z,823.00
2023-03-06T22:17:17.362Z,823.00
2023-03-06T22:18:17.349Z,824.00
2023-03-06T22:19:17.341Z,825.00
2023-03-06T22:20:20.277Z,822.00
2023-03-06T22:21:17.323Z,820.00
2023-03-06T22:22:17.317Z,820.00
2023-03-06T22:23:17.318Z,818.00
2023-03-06T22:24:17.301Z,818.00
2023-03-06T22:25:17.316Z,817.00
2023-03-06T22:26:17.780Z,817.00
2023-03-06T22:27:17.272Z,817.00
2023-03-06T22:28:17.262Z,816.00
2023-03-06T22:29:17.261Z,819.00
2023-03-06T22:30:17.248Z,814.00
2023-03-06T22:31:17.284Z,809.00
2023-03-06T22:32:17.398Z,806.00
2023-03-06T22:33:17.213Z,806.00
2023-03-06T22:34:17.199Z,806.00
2023-03-06T22:35:17.195Z,805.00
2023-03-06T22:36:17.178Z,804.00
2023-03-06T22:37:17.178Z,807.00
2023-03-06T22:38:17.168Z,808.00
2023-03-06T22:39:17.155Z,807.00
2023-03-06T22:40:17.157Z,807.00
2023-03-06T22:41:17.190Z,805.00
2023-03-06T22:42:17.131Z,804.00
2023-03-06T22:43:17.123Z,805.00
2023-03-06T22:44:17.116Z,802.00
2023-03-06T22:45:17.098Z,801.00
2023-03-06T22:46:17.197Z,799.00
2023-03-06T22:47:17.108Z,800.00
2023-03-06T22:48:17.071Z,801.00
2023-03-06T22:49:17.111Z,801.00
2023-03-06T22:50:17.061Z,800.00
2023-03-06T22:51:17.053Z,800.00
2023-03-06T22:52:17.034Z,801.00
2023-03-06T22:53:17.027Z,803.00
2023-03-06T22:54:17.015Z,803.00
2023-03-06T22:55:17.008Z,800.00
2023-03-06T22:56:17.008Z,797.00
2023-03-06T22:57:17.811Z,796.00
2023-03-06T22:58:17.289Z,792.00
2023-03-06T22:59:16.975Z,789.00
2023-03-06T23:00:16.979Z,788.00
2023-03-06T23:01:17.092Z,784.00
2023-03-06T23:02:16.956Z,782.00
2023-03-06T23:03:16.942Z,781.00
2023-03-06T23:04:16.963Z,781.00
2023-03-06T23:05:16.937Z,781.00
2023-03-06T23:06:16.917Z,782.00
2023-03-06T23:07:16.942Z,782.00
2023-03-06T23:08:16.896Z,781.00
2023-03-06T23:09:16.909Z,781.00
2023-03-06T23:10:16.903Z,783.00
2023-03-06T23:11:16.912Z,784.00
2023-03-06T23:12:16.898Z,784.00
2023-03-06T23:13:17.334Z,782.00
2023-03-06T23:14:17.866Z,781.00
2023-03-06T23:15:16.866Z,782.00
2023-03-06T23:16:16.824Z,781.00
2023-03-06T23:17:16.813Z,784.00
2023-03-06T23:18:16.810Z,784.00
2023-03-06T23:19:16.799Z,783.00
2023-03-06T23:20:17.298Z,780.00
2023-03-06T23:21:16.787Z,777.00